Shevlin, MN (56676)

12:59 AM CST on December 10, 2016 (GMT -0600)
Shevlin | | Change Station

Elev 1486 ft 47.53 °N, 95.29 °W | Updated 9 seconds ago

Overcast
Overcast
-6.7 °F
Feels Like -7 °F
N
0.0
Wind Variable Wind from NW
Gusts 0.0 mph

Today
High -- | Low -- °F
--% Chance of Precip.
Yesterday
High -- | Low -- °F
Precip. -- in
Pressure 30.45 in
Visibility 7.0 miles
Clouds Overcast 1400 ft
Windchill -7 °F
Dew Point -18 °F
Humidity 56%
Rainfall 0.00 in
Snow Depth Not available.
7:58 AM 4:29 PM
Waxing Gibbous, 81% visible
METAR KBJI 100652Z AUTO 29005KT 7SM OVC014 M19/M22 A3045 RMK AO2 T11921218
Pressure 30.45 in
Visibility 7.0 miles
Clouds Overcast 1400 ft
Windchill -7 °F
Dew Point -18 °F
Humidity 56%
Rainfall 0.00 in
Snow Depth Not available.
7:58 AM 4:29 PM
Waxing Gibbous, 81% visible
METAR KBJI 100652Z AUTO 29005KT 7SM OVC014 M19/M22 A3045 RMK AO2 T11921218

10-Day Weather Forecast

Almanac

Astronomy

Dec. 10, 2016 Rise Set
Actual Time
Civil Twilight
Nautical Twilight
Astronomical Twilight
Moon
Length of Visible Light
Length of Day
Tomorrow will be .
, % of the Moon is Illuminated

Today's Extremes

State Highs State Lows

Community

WunderPhotos

Upload Photos

1,956,527 photos uploaded!

WunderBlog® & News

Nearby

Air Quality

  Air Quality AQ Index Pollutant
Not available.

Snow Depth

Station Depth Elevation

Earthquake Activity

City Distance Mag. Time & Date
Minimum magnitude displayed is 2.5.

Coastal Water Temperatures

Place Temperature

Stations

Nearby Weather Stations

Station Location Temp. Windchill Dew Point Humidity Wind Precip. Elev Updated Type
                   

Watches & Warnings

There are currently no watches in effect.